createdAt,value
2018-08-03T00:00:31.647Z,0.00
2018-08-03T00:01:31.647Z,0.00
2018-08-03T00:02:31.648Z,0.00
2018-08-03T00:03:31.650Z,0.00
2018-08-03T00:04:31.647Z,0.00
2018-08-03T00:05:31.648Z,0.00
2018-08-03T00:06:31.661Z,0.00
2018-08-03T00:07:31.660Z,0.00
2018-08-03T00:08:31.654Z,0.00
2018-08-03T00:09:31.655Z,0.00
2018-08-03T00:10:31.659Z,0.00
2018-08-03T00:11:31.658Z,0.00
2018-08-03T00:12:31.667Z,0.00
2018-08-03T00:13:31.670Z,0.00
2018-08-03T00:14:31.670Z,0.00
2018-08-03T00:15:31.670Z,0.00
2018-08-03T00:16:31.668Z,0.00
2018-08-03T00:17:31.671Z,0.00
2018-08-03T00:18:31.672Z,0.00
2018-08-03T00:19:31.672Z,0.00
2018-08-03T00:20:31.679Z,0.00
2018-08-03T00:21:31.680Z,0.00
2018-08-03T00:22:31.677Z,0.00
2018-08-03T00:23:31.679Z,0.00
2018-08-03T00:24:31.684Z,0.00
2018-08-03T00:25:31.686Z,0.00
2018-08-03T00:26:31.689Z,0.00
2018-08-03T00:27:31.689Z,0.00
2018-08-03T00:28:31.689Z,0.00
2018-08-03T00:29:31.689Z,0.00
2018-08-03T00:30:31.691Z,0.00
2018-08-03T00:31:31.691Z,0.00
2018-08-03T00:32:31.698Z,0.00
2018-08-03T00:33:31.699Z,0.00
2018-08-03T00:34:31.700Z,0.00
2018-08-03T00:35:31.701Z,0.00
2018-08-03T00:36:31.699Z,0.00
2018-08-03T00:37:31.701Z,0.00
2018-08-03T00:38:31.709Z,0.00
2018-08-03T00:39:31.709Z,0.00
2018-08-03T00:40:31.705Z,0.00
2018-08-03T00:41:31.707Z,0.00
2018-08-03T00:42:31.708Z,0.00
2018-08-03T00:43:31.709Z,0.00
2018-08-03T00:44:31.717Z,0.00
2018-08-03T00:45:31.721Z,0.00
2018-08-03T00:46:31.719Z,0.00
2018-08-03T00:47:31.722Z,0.00
2018-08-03T00:48:31.717Z,0.00
2018-08-03T00:49:31.719Z,0.00
2018-08-03T00:50:31.721Z,0.00
2018-08-03T00:51:31.720Z,0.00
2018-08-03T00:52:31.727Z,0.00
2018-08-03T00:53:31.730Z,0.00
2018-08-03T00:54:31.726Z,0.00
2018-08-03T00:55:31.728Z,0.00
2018-08-03T00:56:31.732Z,0.00
2018-08-03T00:57:31.734Z,0.00
2018-08-03T00:58:31.737Z,0.00
2018-08-03T00:59:31.737Z,0.00
2018-08-03T01:00:31.734Z,0.00
2018-08-03T01:01:31.737Z,0.00
2018-08-03T01:02:31.737Z,0.00
2018-08-03T01:03:31.737Z,0.00
2018-08-03T01:04:31.744Z,0.00
2018-08-03T01:05:31.745Z,0.00
2018-08-03T01:06:31.748Z,0.00
2018-08-03T01:07:31.751Z,0.00
2018-08-03T01:08:31.745Z,0.00
2018-08-03T01:09:31.747Z,0.00
2018-08-03T01:10:31.756Z,0.00
2018-08-03T01:11:31.754Z,0.00
2018-08-03T01:12:31.750Z,0.00
2018-08-03T01:13:31.751Z,0.00
2018-08-03T01:14:31.752Z,0.00
2018-08-03T01:15:31.757Z,0.00
2018-08-03T01:16:31.758Z,0.00
2018-08-03T01:17:31.761Z,0.00
2018-08-03T01:18:31.765Z,0.00
2018-08-03T01:19:31.763Z,0.00
2018-08-03T01:20:31.760Z,0.00
2018-08-03T01:21:31.760Z,0.00
2018-08-03T01:22:31.762Z,0.00
2018-08-03T01:23:31.764Z,0.00
2018-08-03T01:24:31.770Z,0.00
2018-08-03T01:25:31.772Z,0.00
2018-08-03T01:26:31.767Z,0.00
2018-08-03T01:27:31.770Z,0.00
2018-08-03T01:28:31.774Z,0.00
2018-08-03T01:29:31.775Z,0.00
2018-08-03T01:30:31.776Z,0.00
2018-08-03T01:31:31.776Z,0.00
2018-08-03T01:32:31.774Z,0.00
2018-08-03T01:33:31.775Z,0.00
2018-08-03T01:34:31.775Z,0.00
2018-08-03T01:35:31.776Z,0.00
2018-08-03T01:36:31.782Z,0.00
2018-08-03T01:37:31.783Z,0.00
2018-08-03T01:38:31.786Z,0.00
2018-08-03T01:39:31.786Z,0.00
2018-08-03T01:40:31.783Z,0.00
2018-08-03T01:41:31.785Z,0.00
2018-08-03T01:42:31.791Z,0.00
2018-08-03T01:43:31.791Z,0.00
2018-08-03T01:44:31.787Z,0.00
2018-08-03T01:45:31.787Z,0.00
2018-08-03T01:46:31.791Z,0.00
2018-08-03T01:47:31.789Z,0.00
2018-08-03T01:48:31.795Z,0.00
2018-08-03T01:49:31.797Z,0.00
2018-08-03T01:50:31.799Z,0.00
2018-08-03T01:51:31.799Z,0.00
2018-08-03T01:52:31.794Z,0.00
2018-08-03T01:53:31.795Z,0.00
2018-08-03T01:54:31.797Z,0.00
2018-08-03T01:55:31.800Z,0.00
2018-08-03T01:56:31.804Z,0.00
2018-08-03T01:57:31.803Z,0.00
2018-08-03T01:58:31.801Z,0.00
2018-08-03T01:59:31.800Z,0.00
2018-08-03T02:00:31.808Z,0.00
2018-08-03T02:01:31.808Z,0.00
2018-08-03T02:02:31.809Z,0.00
2018-08-03T02:03:31.809Z,0.00
2018-08-03T02:04:31.805Z,0.00
2018-08-03T02:05:31.806Z,0.00
2018-08-03T02:06:31.808Z,0.00
2018-08-03T02:07:31.811Z,0.00
2018-08-03T02:08:31.817Z,0.00
2018-08-03T02:09:31.816Z,0.00
2018-08-03T02:10:31.823Z,0.00
2018-08-03T02:11:31.817Z,0.00
2018-08-03T02:12:31.812Z,0.00
2018-08-03T02:13:31.813Z,0.00
2018-08-03T02:14:31.819Z,0.00
2018-08-03T02:15:31.819Z,0.00
2018-08-03T02:16:31.815Z,0.00
2018-08-03T02:17:31.816Z,0.00
2018-08-03T02:18:31.854Z,0.00
2018-08-03T02:19:31.818Z,0.00
2018-08-03T02:20:31.824Z,0.00
2018-08-03T02:21:31.825Z,0.00
2018-08-03T02:22:31.843Z,0.00
2018-08-03T02:23:31.827Z,0.00
2018-08-03T02:24:31.822Z,0.00
2018-08-03T02:25:31.822Z,0.00
2018-08-03T02:26:31.823Z,0.00
2018-08-03T02:27:31.822Z,0.00
2018-08-03T02:28:31.829Z,0.00
2018-08-03T02:29:31.830Z,0.00
2018-08-03T02:30:31.828Z,0.00
2018-08-03T02:31:31.825Z,0.00
2018-08-03T02:32:31.832Z,0.00
2018-08-03T02:33:31.832Z,0.00
2018-08-03T02:34:31.834Z,0.00
2018-08-03T02:35:31.834Z,0.00
2018-08-03T02:36:31.828Z,0.00
2018-08-03T02:37:31.846Z,0.00
2018-08-03T02:38:31.832Z,0.00
2018-08-03T02:39:31.832Z,0.00
2018-08-03T02:40:31.840Z,0.00
2018-08-03T02:41:31.837Z,0.00
2018-08-03T02:42:31.838Z,0.00
2018-08-03T02:43:31.839Z,0.00
2018-08-03T02:44:31.836Z,0.00
2018-08-03T02:45:31.836Z,0.00
2018-08-03T02:46:31.840Z,0.00
2018-08-03T02:47:31.840Z,0.00
2018-08-03T02:48:31.835Z,0.00
2018-08-03T02:49:31.837Z,0.00
2018-08-03T02:50:31.838Z,0.00
2018-08-03T02:51:31.837Z,0.00
2018-08-03T02:52:31.843Z,0.00
2018-08-03T02:53:31.843Z,0.00
2018-08-03T02:54:31.844Z,0.00
2018-08-03T02:55:31.843Z,0.00
2018-08-03T02:56:31.841Z,0.00
2018-08-03T02:57:31.843Z,0.00
2018-08-03T02:58:31.841Z,0.00
2018-08-03T02:59:31.841Z,0.00
2018-08-03T03:00:31.846Z,0.00
2018-08-03T03:01:31.847Z,0.00
2018-08-03T03:02:31.843Z,0.00
2018-08-03T03:03:31.843Z,0.00
2018-08-03T03:04:31.849Z,0.00
2018-08-03T03:05:31.862Z,0.00
2018-08-03T03:06:31.851Z,0.00
2018-08-03T03:07:31.851Z,0.00
2018-08-03T03:08:31.847Z,0.00
2018-08-03T03:09:31.845Z,0.00
2018-08-03T03:10:31.846Z,0.00
2018-08-03T03:11:31.848Z,0.00
2018-08-03T03:12:31.852Z,0.00
2018-08-03T03:13:31.863Z,0.00
2018-08-03T03:14:31.853Z,0.00
2018-08-03T03:15:31.853Z,0.00
2018-08-03T03:16:31.849Z,0.00
2018-08-03T03:17:31.857Z,0.00
2018-08-03T03:18:31.854Z,0.00
2018-08-03T03:19:31.908Z,0.00
2018-08-03T03:20:31.850Z,0.00
2018-08-03T03:21:31.850Z,0.00
2018-08-03T03:22:31.850Z,0.00
2018-08-03T03:23:31.851Z,0.00
2018-08-03T03:24:31.855Z,0.00
2018-08-03T03:25:31.855Z,0.00
2018-08-03T03:26:31.858Z,0.00
2018-08-03T03:27:31.855Z,0.00
2018-08-03T03:28:31.853Z,0.00
2018-08-03T03:29:31.853Z,0.00
2018-08-03T03:30:31.856Z,0.00
2018-08-03T03:31:31.854Z,0.00
2018-08-03T03:32:31.861Z,0.00
2018-08-03T03:33:31.900Z,0.00
2018-08-03T03:34:31.854Z,0.00
2018-08-03T03:35:31.853Z,0.00
2018-08-03T03:36:31.861Z,0.00
2018-08-03T03:37:31.860Z,0.00
2018-08-03T03:38:31.863Z,0.00
2018-08-03T03:39:31.859Z,0.00
2018-08-03T03:40:31.856Z,0.00
2018-08-03T03:41:31.857Z,0.00
2018-08-03T03:42:31.856Z,0.00
2018-08-03T03:43:31.856Z,0.00
2018-08-03T03:44:31.861Z,0.00
2018-08-03T03:45:31.911Z,0.00
2018-08-03T03:46:31.863Z,0.00
2018-08-03T03:47:31.861Z,0.00
2018-08-03T03:48:31.857Z,0.00
2018-08-03T03:49:31.859Z,5.63
2018-08-03T03:50:31.863Z,5.63
2018-08-03T03:51:31.865Z,5.63
2018-08-03T03:52:31.858Z,5.63
2018-08-03T03:53:31.858Z,5.63
2018-08-03T03:54:31.858Z,5.63
2018-08-03T03:55:31.858Z,5.63
2018-08-03T03:56:31.863Z,5.63
2018-08-03T03:57:31.866Z,11.25
2018-08-03T03:58:31.864Z,11.25
2018-08-03T03:59:31.864Z,11.25
2018-08-03T04:00:31.859Z,11.25
2018-08-03T04:01:31.860Z,11.25
2018-08-03T04:02:31.861Z,11.25
2018-08-03T04:03:31.864Z,16.88
2018-08-03T04:04:31.868Z,16.88
2018-08-03T04:05:31.866Z,16.88
2018-08-03T04:06:31.861Z,16.88
2018-08-03T04:07:31.877Z,22.50
2018-08-03T04:08:31.867Z,22.50
2018-08-03T04:09:31.867Z,22.50
2018-08-03T04:10:31.866Z,28.13
2018-08-03T04:11:31.867Z,28.13
2018-08-03T04:12:31.862Z,28.13
2018-08-03T04:13:31.862Z,33.75
2018-08-03T04:14:31.863Z,33.75
2018-08-03T04:15:31.862Z,33.75
2018-08-03T04:16:31.867Z,39.38
2018-08-03T04:17:31.868Z,39.38
2018-08-03T04:18:31.869Z,39.38
2018-08-03T04:19:31.869Z,45.00
2018-08-03T04:20:31.867Z,45.00
2018-08-03T04:21:31.864Z,50.63
2018-08-03T04:22:31.869Z,50.63
2018-08-03T04:23:31.869Z,56.25
2018-08-03T04:24:31.866Z,56.25
2018-08-03T04:25:31.882Z,56.25
2018-08-03T04:26:31.866Z,61.88
2018-08-03T04:27:31.866Z,61.88
2018-08-03T04:28:31.870Z,67.50
2018-08-03T04:29:31.872Z,67.50
2018-08-03T04:30:31.873Z,73.13
2018-08-03T04:31:31.872Z,73.13
2018-08-03T04:32:31.867Z,78.75
2018-08-03T04:33:31.869Z,84.38
2018-08-03T04:34:31.869Z,84.38
2018-08-03T04:35:31.869Z,90.00
2018-08-03T04:36:31.875Z,90.00
2018-08-03T04:37:31.875Z,95.63
2018-08-03T04:38:31.874Z,101.25
2018-08-03T04:39:31.875Z,101.25
2018-08-03T04:40:31.877Z,106.88
2018-08-03T04:41:31.878Z,106.88
2018-08-03T04:42:31.917Z,118.13
2018-08-03T04:43:31.877Z,135.00
2018-08-03T04:44:31.873Z,163.13
2018-08-03T04:45:31.875Z,174.38
2018-08-03T04:46:31.878Z,191.25
2018-08-03T04:47:31.875Z,202.50
2018-08-03T04:48:31.895Z,208.13
2018-08-03T04:49:31.883Z,219.38
2018-08-03T04:50:31.884Z,236.25
2018-08-03T04:51:31.886Z,247.50
2018-08-03T04:52:31.880Z,264.38
2018-08-03T04:53:31.882Z,281.25
2018-08-03T04:54:31.889Z,286.88
2018-08-03T04:55:31.893Z,303.75
2018-08-03T04:56:31.892Z,315.00
2018-08-03T04:57:31.887Z,326.25
2018-08-03T04:58:31.891Z,337.50
2018-08-03T04:59:31.889Z,343.13
2018-08-03T05:00:31.896Z,360.00
2018-08-03T05:01:31.898Z,371.25
2018-08-03T05:02:31.900Z,382.50
2018-08-03T05:03:31.901Z,399.38
2018-08-03T05:04:31.899Z,416.25
2018-08-03T05:05:31.903Z,427.50
2018-08-03T05:06:31.906Z,444.38
2018-08-03T05:07:31.908Z,455.63
2018-08-03T05:08:31.916Z,466.88
2018-08-03T05:09:31.918Z,478.13
2018-08-03T05:10:31.916Z,489.38
2018-08-03T05:11:31.921Z,511.88
2018-08-03T05:12:31.927Z,517.50
2018-08-03T05:13:31.931Z,528.75
2018-08-03T05:14:31.934Z,545.63
2018-08-03T05:15:31.955Z,568.13
2018-08-03T05:16:31.936Z,590.63
2018-08-03T05:17:31.940Z,601.88
2018-08-03T05:18:31.944Z,613.13
2018-08-03T05:19:31.973Z,630.00
2018-08-03T05:20:31.956Z,641.25
2018-08-03T05:21:31.961Z,641.25
2018-08-03T05:22:31.963Z,658.13
2018-08-03T05:23:31.966Z,669.38
2018-08-03T05:24:31.967Z,686.25
2018-08-03T05:25:31.974Z,703.13
2018-08-03T05:26:31.982Z,708.75
2018-08-03T05:27:31.985Z,720.00
2018-08-03T05:28:31.986Z,725.63
2018-08-03T05:29:31.991Z,742.50
2018-08-03T05:30:31.997Z,753.75
2018-08-03T05:31:32.002Z,765.00
2018-08-03T05:32:32.012Z,776.25
2018-08-03T05:33:32.020Z,793.13
2018-08-03T05:34:32.023Z,804.38
2018-08-03T05:35:32.097Z,815.63
2018-08-03T05:36:32.032Z,832.50
2018-08-03T05:37:32.034Z,843.75
2018-08-03T05:38:32.041Z,860.63
2018-08-03T05:39:32.045Z,871.88
2018-08-03T05:40:32.056Z,883.13
2018-08-03T05:41:32.061Z,894.38
2018-08-03T05:42:32.123Z,911.25
2018-08-03T05:43:32.070Z,911.25
2018-08-03T05:44:32.081Z,928.13
2018-08-03T05:45:32.129Z,945.00
2018-08-03T05:46:32.094Z,956.25
2018-08-03T05:47:32.099Z,973.13
2018-08-03T05:48:32.101Z,984.38
2018-08-03T05:49:32.109Z,995.63
2018-08-03T05:50:32.117Z,1006.88
2018-08-03T05:51:32.123Z,1023.75
2018-08-03T05:52:32.154Z,1040.63
2018-08-03T05:53:32.141Z,1046.25
2018-08-03T05:54:32.149Z,1057.50
2018-08-03T05:55:32.156Z,1068.75
2018-08-03T05:56:32.159Z,1080.00
2018-08-03T05:57:32.166Z,1102.50
2018-08-03T05:58:32.177Z,1113.75
2018-08-03T05:59:32.185Z,1125.00
2018-08-03T06:00:32.188Z,1136.25
2018-08-03T06:01:32.196Z,1147.50
2018-08-03T06:02:32.205Z,1153.13
2018-08-03T06:03:32.216Z,1164.38
2018-08-03T06:04:32.226Z,1175.63
2018-08-03T06:05:32.234Z,1186.88
2018-08-03T06:06:32.248Z,1198.13
2018-08-03T06:07:32.252Z,1209.38
2018-08-03T06:08:32.254Z,1220.63
2018-08-03T06:09:32.323Z,1226.25
2018-08-03T06:10:32.271Z,1231.88
2018-08-03T06:11:32.280Z,1248.75
2018-08-03T06:12:32.294Z,1260.00
2018-08-03T06:13:32.302Z,1271.25
2018-08-03T06:14:32.307Z,1276.88
2018-08-03T06:15:32.316Z,1293.75
2018-08-03T06:16:32.330Z,1299.38
2018-08-03T06:17:32.341Z,1310.63
2018-08-03T06:18:32.353Z,1327.50
2018-08-03T06:19:32.359Z,1333.13
2018-08-03T06:20:32.387Z,1344.38
2018-08-03T06:21:32.374Z,1355.63
2018-08-03T06:22:32.385Z,1361.25
2018-08-03T06:23:32.394Z,1372.50
2018-08-03T06:24:32.408Z,1378.13
2018-08-03T06:25:32.418Z,1395.00
2018-08-03T06:26:32.430Z,1400.63
2018-08-03T06:27:32.440Z,1417.50
2018-08-03T06:28:32.479Z,1423.13
2018-08-03T06:29:32.459Z,1440.00
2018-08-03T06:30:32.473Z,1451.25
2018-08-03T06:31:32.485Z,1462.50
2018-08-03T06:32:32.489Z,1473.75
2018-08-03T06:33:32.501Z,1479.38
2018-08-03T06:34:32.511Z,1490.63
2018-08-03T06:35:32.521Z,1501.88
2018-08-03T06:36:32.538Z,1507.50
2018-08-03T06:37:32.547Z,1530.00
2018-08-03T06:38:32.570Z,1524.38
2018-08-03T06:39:32.569Z,1535.63
2018-08-03T06:40:32.577Z,1546.88
2018-08-03T06:41:32.592Z,1552.50
2018-08-03T06:42:32.602Z,1569.38
2018-08-03T06:43:32.612Z,1586.25
2018-08-03T06:44:32.629Z,1586.25
2018-08-03T06:45:32.641Z,1591.88
2018-08-03T06:46:32.650Z,1608.75
2018-08-03T06:47:32.660Z,1620.00
2018-08-03T06:48:32.774Z,1620.00
2018-08-03T06:49:32.707Z,1631.25
2018-08-03T06:50:32.702Z,1642.50
2018-08-03T06:51:32.714Z,1653.75
2018-08-03T06:52:32.722Z,1665.00
2018-08-03T06:53:32.735Z,1676.25
2018-08-03T06:54:32.749Z,1681.88
2018-08-03T06:55:32.760Z,1687.50
2018-08-03T06:56:32.779Z,1698.75
2018-08-03T06:57:32.814Z,1704.38
2018-08-03T06:58:32.816Z,1710.00
2018-08-03T06:59:32.817Z,1715.63
2018-08-03T07:00:32.852Z,1732.50
2018-08-03T07:01:32.841Z,1743.75
2018-08-03T07:02:32.859Z,1749.38
2018-08-03T07:03:32.871Z,1766.25
2018-08-03T07:04:32.922Z,1771.88
2018-08-03T07:05:32.898Z,1788.75
2018-08-03T07:06:32.908Z,1794.38
2018-08-03T07:07:32.921Z,1800.00
2018-08-03T07:08:33.058Z,1811.25
2018-08-03T07:09:32.953Z,1816.88
2018-08-03T07:10:32.968Z,1828.13
2018-08-03T07:11:32.982Z,1839.38
2018-08-03T07:12:32.994Z,1839.38
2018-08-03T07:13:33.011Z,1850.63
2018-08-03T07:14:33.100Z,1867.50
2018-08-03T07:15:33.035Z,1878.75
2018-08-03T07:16:33.054Z,1890.00
2018-08-03T07:17:33.067Z,1895.63
2018-08-03T07:18:33.079Z,1895.63
2018-08-03T07:19:33.092Z,1912.50
2018-08-03T07:20:33.254Z,1912.50
2018-08-03T07:21:33.127Z,1929.38
2018-08-03T07:22:33.141Z,1940.63
2018-08-03T07:23:33.157Z,1940.63
2018-08-03T07:24:33.168Z,1946.25
2018-08-03T07:25:33.182Z,1957.50
2018-08-03T07:26:33.198Z,1968.75
2018-08-03T07:27:33.213Z,1974.38
2018-08-03T07:28:33.234Z,1991.25
2018-08-03T07:29:33.250Z,1996.88
2018-08-03T07:30:33.264Z,2008.13
2018-08-03T07:31:33.287Z,2008.13
2018-08-03T07:32:33.290Z,2019.38
2018-08-03T07:33:33.306Z,2036.25
2018-08-03T07:34:33.327Z,2047.50
2018-08-03T07:35:33.342Z,2075.63
2018-08-03T07:36:33.355Z,2081.25
2018-08-03T07:37:33.370Z,2092.50
2018-08-03T07:38:33.388Z,2103.75
2018-08-03T07:39:33.404Z,2109.38
2018-08-03T07:40:33.425Z,2126.25
2018-08-03T07:41:33.442Z,2143.13
2018-08-03T07:42:33.459Z,2165.63
2018-08-03T07:43:33.533Z,2176.88
2018-08-03T07:44:33.491Z,2216.25
2018-08-03T07:45:33.503Z,2244.38
2018-08-03T07:46:33.521Z,2266.88
2018-08-03T07:47:33.536Z,2295.00
2018-08-03T07:48:33.558Z,2345.63
2018-08-03T07:49:33.574Z,2401.88
2018-08-03T07:50:33.588Z,1890.00
2018-08-03T07:51:33.604Z,2008.13
2018-08-03T07:52:33.661Z,2165.63
2018-08-03T07:53:33.692Z,2435.63
2018-08-03T07:54:33.664Z,3296.25
2018-08-03T07:55:33.676Z,3678.75
2018-08-03T07:56:33.689Z,3864.38
2018-08-03T07:57:33.709Z,3780.00
2018-08-03T07:58:33.724Z,3740.63
2018-08-03T07:59:33.738Z,3718.13
2018-08-03T08:00:33.761Z,3746.25
2018-08-03T08:01:33.777Z,3802.50
2018-08-03T08:02:33.792Z,3931.88
2018-08-03T08:03:33.809Z,4100.63
2018-08-03T08:04:33.820Z,4162.50
2018-08-03T08:05:33.842Z,4140.00
2018-08-03T08:06:33.858Z,4258.13
2018-08-03T08:07:33.874Z,4483.13
2018-08-03T08:08:33.886Z,4516.88
2018-08-03T08:09:33.932Z,4376.25
2018-08-03T08:10:33.924Z,4471.88
2018-08-03T08:11:33.939Z,4730.63
2018-08-03T08:12:33.959Z,4831.88
2018-08-03T08:13:33.974Z,5158.13
2018-08-03T08:14:33.992Z,5220.00
2018-08-03T08:15:34.071Z,4927.50
2018-08-03T08:16:34.022Z,5006.25
2018-08-03T08:17:34.044Z,5259.38
2018-08-03T08:18:34.055Z,5073.75
2018-08-03T08:19:34.069Z,4899.38
2018-08-03T08:20:34.090Z,5315.63
2018-08-03T08:21:34.108Z,5428.13
2018-08-03T08:22:34.120Z,5214.38
2018-08-03T08:23:34.137Z,5141.25
2018-08-03T08:24:34.158Z,5107.50
2018-08-03T08:25:34.175Z,5135.63
2018-08-03T08:26:34.194Z,5045.63
2018-08-03T08:27:34.212Z,4854.38
2018-08-03T08:28:34.223Z,4629.38
2018-08-03T08:29:34.241Z,4725.00
2018-08-03T08:30:34.262Z,4680.00
2018-08-03T08:31:34.327Z,4438.13
2018-08-03T08:32:34.297Z,4359.38
2018-08-03T08:33:34.315Z,4680.00
2018-08-03T08:34:34.335Z,4882.50
2018-08-03T08:35:34.350Z,4741.88
2018-08-03T08:36:34.363Z,4449.38
2018-08-03T08:37:34.381Z,4246.88
2018-08-03T08:38:34.403Z,4730.63
2018-08-03T08:39:34.420Z,5135.63
2018-08-03T08:40:34.434Z,4854.38
2018-08-03T08:41:34.450Z,4449.38
2018-08-03T08:42:34.475Z,4168.13
2018-08-03T08:43:34.555Z,4173.75
2018-08-03T08:44:34.508Z,4280.63
2018-08-03T08:45:34.526Z,4151.25
2018-08-03T08:46:34.550Z,4050.00
2018-08-03T08:47:34.566Z,4134.38
2018-08-03T08:48:34.576Z,4061.25
2018-08-03T08:49:34.595Z,4016.25
2018-08-03T08:50:34.614Z,4050.00
2018-08-03T08:51:34.633Z,4156.88
2018-08-03T08:52:34.657Z,4061.25
2018-08-03T08:53:34.674Z,3931.88
2018-08-03T08:54:34.688Z,3903.75
2018-08-03T08:55:34.705Z,3960.00
2018-08-03T08:56:34.728Z,3909.38
2018-08-03T08:57:34.748Z,3915.00
2018-08-03T08:58:34.764Z,3954.38
2018-08-03T08:59:34.789Z,3965.63
2018-08-03T09:00:34.797Z,4128.75
2018-08-03T09:01:34.816Z,4106.25
2018-08-03T09:02:34.835Z,3931.88
2018-08-03T09:03:34.852Z,3847.50
2018-08-03T09:04:34.876Z,3926.25
2018-08-03T09:05:34.895Z,3971.25
2018-08-03T09:06:34.915Z,3948.75
2018-08-03T09:07:35.015Z,3960.00
2018-08-03T09:08:34.950Z,3943.13
2018-08-03T09:09:34.996Z,3965.63
2018-08-03T09:10:34.990Z,3915.00
2018-08-03T09:11:35.012Z,3785.63
2018-08-03T09:12:35.036Z,3847.50
2018-08-03T09:13:35.042Z,3999.38
2018-08-03T09:14:35.059Z,4185.00
2018-08-03T09:15:35.077Z,4336.88
2018-08-03T09:16:35.102Z,4393.13
2018-08-03T09:17:35.118Z,4325.63
2018-08-03T09:18:35.193Z,4331.25
2018-08-03T09:19:35.155Z,4601.25
2018-08-03T09:20:35.168Z,4803.75
2018-08-03T09:21:35.187Z,4983.75
2018-08-03T09:22:35.206Z,4905.00
2018-08-03T09:23:35.224Z,4550.63
2018-08-03T09:24:35.265Z,4173.75
2018-08-03T09:25:35.265Z,3909.38
2018-08-03T09:26:35.281Z,3825.00
2018-08-03T09:27:35.301Z,3757.50
2018-08-03T09:28:35.336Z,3695.63
2018-08-03T09:29:35.341Z,3645.00
2018-08-03T09:30:35.361Z,3645.00
2018-08-03T09:31:35.401Z,3611.25
2018-08-03T09:32:35.413Z,3605.63
2018-08-03T09:33:35.413Z,3616.88
2018-08-03T09:34:35.431Z,3639.38
2018-08-03T09:35:35.488Z,3684.38
2018-08-03T09:36:35.493Z,3712.50
2018-08-03T09:37:35.495Z,3735.00
2018-08-03T09:38:35.512Z,3780.00
2018-08-03T09:39:35.530Z,3785.63
2018-08-03T09:40:35.568Z,3808.13
2018-08-03T09:41:35.565Z,3825.00
2018-08-03T09:42:35.588Z,3853.13
2018-08-03T09:43:35.607Z,3875.63
2018-08-03T09:44:35.620Z,3892.50
2018-08-03T09:45:35.639Z,3926.25
2018-08-03T09:46:35.665Z,3931.88
2018-08-03T09:47:35.678Z,3915.00
2018-08-03T09:48:35.701Z,3943.13
2018-08-03T09:49:35.723Z,3937.50
2018-08-03T09:50:35.742Z,3971.25
2018-08-03T09:51:35.760Z,3982.50
2018-08-03T09:52:35.776Z,3993.75
2018-08-03T09:53:35.795Z,4005.00
2018-08-03T09:54:35.880Z,3993.75
2018-08-03T09:55:35.836Z,4005.00
2018-08-03T09:56:35.859Z,3993.75
2018-08-03T09:57:35.880Z,4016.25
2018-08-03T09:58:35.896Z,3993.75
2018-08-03T09:59:35.914Z,4005.00
2018-08-03T10:00:35.939Z,3982.50
2018-08-03T10:01:35.992Z,3948.75
2018-08-03T10:02:35.982Z,3915.00
2018-08-03T10:03:36.004Z,3892.50
2018-08-03T10:04:36.018Z,3864.38
2018-08-03T10:05:36.037Z,3808.13
2018-08-03T10:06:36.062Z,3813.75
2018-08-03T10:07:36.084Z,3746.25
2018-08-03T10:08:36.104Z,3690.00
2018-08-03T10:09:36.124Z,3645.00
2018-08-03T10:10:36.143Z,3583.13
2018-08-03T10:11:36.164Z,3560.63
2018-08-03T10:12:36.236Z,3532.50
2018-08-03T10:13:36.199Z,3493.13
2018-08-03T10:14:36.224Z,3436.88
2018-08-03T10:15:36.292Z,3425.63
2018-08-03T10:16:36.259Z,3369.38
2018-08-03T10:17:36.279Z,3330.00
2018-08-03T10:18:36.301Z,3279.38
2018-08-03T10:19:36.321Z,3240.00
2018-08-03T10:20:36.346Z,3195.00
2018-08-03T10:21:36.373Z,3178.13
2018-08-03T10:22:36.387Z,3144.38
2018-08-03T10:23:36.405Z,3105.00
2018-08-03T10:24:36.426Z,3065.63
2018-08-03T10:25:36.441Z,3031.88
2018-08-03T10:26:36.462Z,3026.25
2018-08-03T10:27:36.479Z,3076.88
2018-08-03T10:28:36.504Z,3037.50
2018-08-03T10:29:36.529Z,3048.75
2018-08-03T10:30:36.541Z,3054.38
2018-08-03T10:31:36.557Z,3065.63
2018-08-03T10:32:36.582Z,3105.00
2018-08-03T10:33:36.600Z,3920.63
2018-08-03T10:34:36.623Z,5416.88
2018-08-03T10:35:36.639Z,5400.00
2018-08-03T10:36:36.658Z,4820.63
2018-08-03T10:37:36.673Z,4966.88
2018-08-03T10:38:36.692Z,5062.50
2018-08-03T10:39:36.710Z,5073.75
2018-08-03T10:40:36.734Z,5090.63
2018-08-03T10:41:36.753Z,4983.75
2018-08-03T10:42:36.771Z,4871.25
2018-08-03T10:43:36.790Z,5113.13
2018-08-03T10:44:36.807Z,5056.88
2018-08-03T10:45:36.823Z,5051.25
2018-08-03T10:46:36.852Z,5011.88
2018-08-03T10:47:36.864Z,4916.25
2018-08-03T10:48:36.893Z,5197.50
2018-08-03T10:49:36.896Z,5298.75
2018-08-03T10:50:36.918Z,5248.13
2018-08-03T10:51:36.932Z,5158.13
2018-08-03T10:52:36.959Z,5101.88
2018-08-03T10:53:36.974Z,5236.88
2018-08-03T10:54:36.994Z,5332.50
2018-08-03T10:55:37.010Z,5293.13
2018-08-03T10:56:37.025Z,5220.00
2018-08-03T10:57:37.046Z,5203.13
2018-08-03T10:58:37.107Z,5270.63
2018-08-03T10:59:37.081Z,5281.88
2018-08-03T11:00:37.105Z,5388.75
2018-08-03T11:01:37.155Z,5321.25
2018-08-03T11:02:37.138Z,5630.63
2018-08-03T11:03:37.156Z,5400.00
2018-08-03T11:04:37.181Z,5051.25
2018-08-03T11:05:37.199Z,5377.50
2018-08-03T11:06:37.226Z,5439.38
2018-08-03T11:07:37.234Z,5416.88
2018-08-03T11:08:37.250Z,5613.75
2018-08-03T11:09:37.268Z,5703.75
2018-08-03T11:10:37.287Z,5501.25
2018-08-03T11:11:37.306Z,5506.88
2018-08-03T11:12:37.329Z,5585.63
2018-08-03T11:13:37.381Z,5422.50
2018-08-03T11:14:37.371Z,5416.88
2018-08-03T11:15:37.388Z,5613.75
2018-08-03T11:16:37.403Z,5720.63
2018-08-03T11:17:37.424Z,5366.25
2018-08-03T11:18:37.447Z,5073.75
2018-08-03T11:19:37.467Z,5141.25
2018-08-03T11:20:37.483Z,5017.50
2018-08-03T11:21:37.505Z,4950.00
2018-08-03T11:22:37.518Z,5366.25
2018-08-03T11:23:37.536Z,5518.13
2018-08-03T11:24:37.564Z,5484.38
2018-08-03T11:25:37.584Z,5523.75
2018-08-03T11:26:37.599Z,5585.63
2018-08-03T11:27:37.619Z,5321.25
2018-08-03T11:28:37.632Z,3020.63
2018-08-03T11:29:37.661Z,1023.75
2018-08-03T11:30:37.668Z,815.63
2018-08-03T11:31:37.686Z,776.25
2018-08-03T11:32:37.711Z,770.63
2018-08-03T11:33:37.728Z,770.63
2018-08-03T11:34:37.737Z,753.75
2018-08-03T11:35:37.753Z,742.50
2018-08-03T11:36:37.774Z,742.50
2018-08-03T11:37:37.790Z,736.88
2018-08-03T11:38:37.805Z,731.25
2018-08-03T11:39:37.818Z,725.63
2018-08-03T11:40:37.830Z,720.00
2018-08-03T11:41:37.844Z,714.38
2018-08-03T11:42:37.858Z,714.38
2018-08-03T11:43:37.873Z,714.38
2018-08-03T11:44:37.897Z,714.38
2018-08-03T11:45:37.904Z,708.75
2018-08-03T11:46:37.919Z,708.75
2018-08-03T11:47:37.929Z,708.75
2018-08-03T11:48:37.939Z,708.75
2018-08-03T11:49:37.951Z,703.13
2018-08-03T11:50:37.968Z,697.50
2018-08-03T11:51:37.980Z,697.50
2018-08-03T11:52:37.989Z,697.50
2018-08-03T11:53:38.001Z,686.25
2018-08-03T11:54:38.014Z,686.25
2018-08-03T11:55:38.024Z,680.63
2018-08-03T11:56:38.041Z,680.63
2018-08-03T11:57:38.053Z,691.88
2018-08-03T11:58:38.063Z,686.25
2018-08-03T11:59:38.074Z,686.25
2018-08-03T12:00:38.081Z,680.63
2018-08-03T12:01:38.093Z,669.38
2018-08-03T12:02:38.102Z,658.13
2018-08-03T12:03:38.113Z,652.50
2018-08-03T12:04:38.129Z,652.50
2018-08-03T12:05:38.139Z,652.50
2018-08-03T12:06:38.252Z,652.50
2018-08-03T12:07:38.154Z,641.25
2018-08-03T12:08:38.168Z,646.88
2018-08-03T12:09:38.178Z,646.88
2018-08-03T12:10:38.190Z,641.25
2018-08-03T12:11:38.199Z,641.25
2018-08-03T12:12:38.297Z,641.25
2018-08-03T12:13:38.213Z,635.63
2018-08-03T12:14:38.224Z,624.38
2018-08-03T12:15:38.233Z,624.38
2018-08-03T12:16:38.248Z,618.75
2018-08-03T12:17:38.257Z,601.88
2018-08-03T12:18:38.266Z,585.00
2018-08-03T12:19:38.275Z,585.00
2018-08-03T12:20:38.280Z,630.00
2018-08-03T12:21:38.289Z,641.25
2018-08-03T12:22:38.304Z,652.50
2018-08-03T12:23:38.349Z,658.13
2018-08-03T12:24:38.317Z,675.00
2018-08-03T12:25:38.328Z,680.63
2018-08-03T12:26:38.337Z,675.00
2018-08-03T12:27:38.345Z,658.13
2018-08-03T12:28:38.361Z,652.50
2018-08-03T12:29:38.368Z,641.25
2018-08-03T12:30:38.379Z,635.63
2018-08-03T12:31:38.445Z,646.88
2018-08-03T12:32:38.395Z,658.13
2018-08-03T12:33:38.401Z,675.00